createdAt,value
2023-04-20T00:00:01.165Z,91625.53
2023-04-20T00:02:47.096Z,91621.22
2023-04-20T00:05:33.107Z,91621.81
2023-04-20T00:08:19.293Z,91612.03
2023-04-20T00:11:05.260Z,91608.16
2023-04-20T00:13:51.008Z,91597.88
2023-04-20T00:16:36.857Z,91601.78
2023-04-20T00:19:22.600Z,91601.31
2023-04-20T00:22:08.484Z,91592.28
2023-04-20T00:24:54.273Z,91591.59
2023-04-20T00:27:40.331Z,91592.16
2023-04-20T00:30:26.132Z,91589.94
2023-04-20T00:33:12.134Z,91589.63
2023-04-20T00:35:58.089Z,91582.97
2023-04-20T00:38:43.830Z,91596.16
2023-04-20T00:41:29.662Z,91582.38
2023-04-20T00:44:15.427Z,91575.50
2023-04-20T00:47:01.428Z,91573.41
2023-04-20T00:49:47.379Z,91568.44
2023-04-20T00:52:33.092Z,91565.41
2023-04-20T00:55:18.942Z,91562.81
2023-04-20T00:58:04.789Z,91557.34
2023-04-20T01:00:50.620Z,91561.66
2023-04-20T01:03:36.711Z,91559.81
2023-04-20T01:06:22.861Z,91559.34
2023-04-20T01:09:08.751Z,91557.56
2023-04-20T01:11:54.700Z,91550.53
2023-04-20T01:14:40.551Z,91549.75
2023-04-20T01:17:26.492Z,91554.59
2023-04-20T01:20:12.407Z,91543.09
2023-04-20T01:22:58.267Z,91536.47
2023-04-20T01:25:44.289Z,91539.72
2023-04-20T01:28:30.080Z,91536.38
2023-04-20T01:31:15.904Z,91525.25
2023-04-20T01:34:01.850Z,91529.47
2023-04-20T01:36:47.640Z,91527.88
2023-04-20T01:39:33.723Z,91527.78
2023-04-20T01:42:19.593Z,91528.53
2023-04-20T01:45:05.581Z,91512.75
2023-04-20T01:47:51.571Z,91518.47
2023-04-20T01:50:37.414Z,91511.34
2023-04-20T01:53:23.360Z,91521.22
2023-04-20T01:56:09.205Z,91517.53
2023-04-20T01:58:54.936Z,91513.19
2023-04-20T02:01:40.767Z,91513.41
2023-04-20T02:04:26.682Z,91513.28
2023-04-20T02:07:12.614Z,91508.75
2023-04-20T02:09:58.416Z,91497.91
2023-04-20T02:12:44.251Z,91495.16
2023-04-20T02:15:30.128Z,91497.75
2023-04-20T02:18:15.944Z,91493.53
2023-04-20T02:21:01.789Z,91491.13
2023-04-20T02:23:47.610Z,91484.78
2023-04-20T02:26:33.354Z,91483.03
2023-04-20T02:29:19.419Z,91477.75
2023-04-20T02:32:05.466Z,91475.16
2023-04-20T02:34:51.305Z,91481.19
2023-04-20T02:37:37.110Z,91474.22
2023-04-20T02:40:23.100Z,91477.47
2023-04-20T02:43:09.025Z,91463.66
2023-04-20T02:45:55.055Z,91469.56
2023-04-20T02:48:40.782Z,91470.47
2023-04-20T02:51:26.819Z,91475.28
2023-04-20T02:54:12.672Z,91461.28
2023-04-20T02:56:58.528Z,91469.78
2023-04-20T02:59:44.465Z,91466.53
2023-04-20T03:02:30.438Z,91460.19
2023-04-20T03:05:16.607Z,91462.53
2023-04-20T03:08:02.555Z,91460.84
2023-04-20T03:10:48.447Z,91461.47
2023-04-20T03:13:34.318Z,91457.69
2023-04-20T03:16:20.229Z,91467.44
2023-04-20T03:19:06.157Z,91450.97
2023-04-20T03:21:52.080Z,91459.91
2023-04-20T03:24:38.081Z,91451.28
2023-04-20T03:27:23.865Z,91449.94
2023-04-20T03:30:09.862Z,91450.47
2023-04-20T03:32:55.757Z,91447.69
2023-04-20T03:35:41.562Z,91445.47
2023-04-20T03:38:27.369Z,91445.91
2023-04-20T03:41:13.237Z,91445.34
2023-04-20T03:43:59.118Z,91442.31
2023-04-20T03:46:45.052Z,91445.69
2023-04-20T03:49:30.917Z,91447.97
2023-04-20T03:52:16.741Z,91446.34
2023-04-20T03:55:02.535Z,91443.81
2023-04-20T03:57:48.530Z,91442.72
2023-04-20T04:00:34.346Z,91442.84
2023-04-20T04:03:20.309Z,91448.38
2023-04-20T04:06:06.589Z,91446.78
2023-04-20T04:08:52.467Z,91436.00
2023-04-20T04:11:38.560Z,91436.00
2023-04-20T04:14:24.425Z,91428.34
2023-04-20T04:17:10.358Z,91426.78
2023-04-20T04:19:56.578Z,91429.13
2023-04-20T04:22:42.352Z,91425.34
2023-04-20T04:25:28.339Z,91431.63
2023-04-20T04:28:14.169Z,91424.84
2023-04-20T04:31:00.023Z,91423.34
2023-04-20T04:33:45.966Z,91417.28
2023-04-20T04:36:31.757Z,91407.91
2023-04-20T04:39:17.834Z,91409.56
2023-04-20T04:42:04.934Z,91407.03
2023-04-20T04:44:50.851Z,91415.47
2023-04-20T04:47:36.922Z,91415.34
2023-04-20T04:50:23.228Z,91411.38
2023-04-20T04:53:09.028Z,91414.16
2023-04-20T04:55:54.935Z,91415.47
2023-04-20T04:58:40.902Z,91411.66
2023-04-20T05:01:26.766Z,91412.22
2023-04-20T05:04:13.198Z,91421.31
2023-04-20T05:06:59.375Z,91419.13
2023-04-20T05:09:45.231Z,91415.91
2023-04-20T05:12:31.162Z,91423.41
2023-04-20T05:15:16.889Z,91424.97
2023-04-20T05:18:02.890Z,91433.31
2023-04-20T05:20:49.059Z,91435.03
2023-04-20T05:23:34.767Z,91429.38
2023-04-20T05:26:20.606Z,91419.16
2023-04-20T05:29:06.490Z,91424.13
2023-04-20T05:31:52.370Z,91413.66
2023-04-20T05:34:38.271Z,91421.72
2023-04-20T05:37:24.144Z,91416.63
2023-04-20T05:40:10.109Z,91418.28
2023-04-20T05:42:55.949Z,91417.91
2023-04-20T05:45:42.012Z,91415.59
2023-04-20T05:48:29.745Z,91419.88
2023-04-20T05:51:16.097Z,91414.75
2023-04-20T05:54:01.917Z,91416.28
2023-04-20T05:56:47.826Z,91421.38
2023-04-20T05:59:33.638Z,91421.53
2023-04-20T06:02:19.720Z,91412.91
2023-04-20T06:05:05.992Z,91419.88
2023-04-20T06:07:52.136Z,91416.31
2023-04-20T06:10:37.972Z,91414.84
2023-04-20T06:13:23.773Z,91408.88
2023-04-20T06:16:09.860Z,91409.00
2023-04-20T06:18:56.054Z,91419.88
2023-04-20T06:21:41.961Z,91418.38
2023-04-20T06:24:27.919Z,91415.91
2023-04-20T06:27:13.793Z,91414.69
2023-04-20T06:29:59.677Z,91416.34
2023-04-20T06:32:45.557Z,91424.13
2023-04-20T06:35:31.403Z,91421.88
2023-04-20T06:38:17.408Z,91416.56
2023-04-20T06:41:03.282Z,91418.94
2023-04-20T06:43:49.086Z,91407.69
2023-04-20T06:46:34.886Z,91405.56
2023-04-20T06:49:20.658Z,91405.22
2023-04-20T06:52:06.533Z,91407.00
2023-04-20T06:54:52.649Z,91404.41
2023-04-20T06:57:38.393Z,91408.16
2023-04-20T07:00:24.428Z,91399.88
2023-04-20T07:03:10.526Z,91386.25
2023-04-20T07:05:56.659Z,91391.47
2023-04-20T07:08:42.511Z,91390.84
2023-04-20T07:11:28.678Z,91385.06
2023-04-20T07:14:14.714Z,91386.06
2023-04-20T07:17:00.625Z,91386.03
2023-04-20T07:19:46.394Z,91382.56
2023-04-20T07:22:32.282Z,91384.06
2023-04-20T07:25:18.183Z,91379.81
2023-04-20T07:28:04.113Z,91376.69
2023-04-20T07:30:49.980Z,91366.41
2023-04-20T07:33:35.923Z,91377.00
2023-04-20T07:36:21.894Z,91368.47
2023-04-20T07:39:07.714Z,91377.06
2023-04-20T07:41:53.512Z,91384.09
2023-04-20T07:44:39.488Z,91388.94
2023-04-20T07:47:25.435Z,91382.97
2023-04-20T07:50:11.367Z,91382.81
2023-04-20T07:52:57.133Z,91385.22
2023-04-20T07:55:42.814Z,91383.38
2023-04-20T07:58:28.900Z,91384.19
2023-04-20T08:01:15.137Z,91391.28
2023-04-20T08:04:01.304Z,91390.41
2023-04-20T08:06:47.469Z,91398.38
2023-04-20T08:09:33.355Z,91403.50
2023-04-20T08:12:19.186Z,91394.94
2023-04-20T08:15:05.231Z,91401.91
2023-04-20T08:17:53.095Z,91396.00
2023-04-20T08:20:39.169Z,91396.16
2023-04-20T08:23:25.071Z,91394.75
2023-04-20T08:26:10.879Z,91389.09
2023-04-20T08:28:56.799Z,91393.59
2023-04-20T08:31:43.126Z,91392.09
2023-04-20T08:34:29.089Z,91398.38
2023-04-20T08:37:14.918Z,91394.19
2023-04-20T08:40:00.791Z,91396.75
2023-04-20T08:42:46.640Z,91404.44
2023-04-20T08:45:32.679Z,91406.59
2023-04-20T08:48:19.037Z,91413.63
2023-04-20T08:51:04.964Z,91415.25
2023-04-20T08:53:50.881Z,91413.88
2023-04-20T08:56:36.874Z,91414.25
2023-04-20T08:59:23.192Z,91425.84
2023-04-20T09:02:09.149Z,91419.56
2023-04-20T09:04:55.055Z,91424.56
2023-04-20T09:07:41.039Z,91419.34
2023-04-20T09:10:27.008Z,91423.47
2023-04-20T09:13:12.992Z,91428.56
2023-04-20T09:15:59.015Z,91427.03
2023-04-20T09:18:44.856Z,91423.00
2023-04-20T09:21:30.971Z,91418.81
2023-04-20T09:24:17.146Z,91424.38
2023-04-20T09:27:03.253Z,91420.41
2023-04-20T09:29:49.202Z,91433.88
2023-04-20T09:32:35.053Z,91423.25
2023-04-20T09:35:20.845Z,91421.34
2023-04-20T09:38:07.058Z,91409.25
2023-04-20T09:40:53.210Z,91427.78
2023-04-20T09:43:39.122Z,91415.16
2023-04-20T09:46:25.018Z,91414.25
2023-04-20T09:49:11.270Z,91419.72
2023-04-20T09:51:57.166Z,91419.06
2023-04-20T09:54:43.056Z,91415.00
2023-04-20T09:57:28.973Z,91425.56
2023-04-20T10:00:14.874Z,91417.22
2023-04-20T10:03:00.910Z,91416.59
2023-04-20T10:05:47.272Z,91412.75
2023-04-20T10:08:33.138Z,91412.88
2023-04-20T10:11:18.980Z,91406.53
2023-04-20T10:14:05.002Z,91406.44
2023-04-20T10:16:50.994Z,91402.81
2023-04-20T10:19:37.018Z,91415.22
2023-04-20T10:22:22.940Z,91407.94
2023-04-20T10:25:08.758Z,91410.34
2023-04-20T10:27:54.715Z,91419.25
2023-04-20T10:30:40.553Z,91424.31
2023-04-20T10:33:26.567Z,91416.94
2023-04-20T10:36:12.571Z,91419.22
2023-04-20T10:39:00.463Z,91423.97
2023-04-20T10:41:46.302Z,91418.50
2023-04-20T10:44:32.333Z,91408.09
2023-04-20T10:47:18.158Z,91401.31
2023-04-20T10:50:06.160Z,91398.09
2023-04-20T10:52:52.218Z,91398.09
2023-04-20T10:55:38.024Z,91397.63
2023-04-20T10:58:24.031Z,91383.47
2023-04-20T11:01:09.969Z,91393.81
2023-04-20T11:03:55.969Z,91381.91
2023-04-20T11:06:42.272Z,91381.31
2023-04-20T11:09:28.077Z,91382.66
2023-04-20T11:12:13.840Z,91386.44
2023-04-20T11:15:00.094Z,91380.09
2023-04-20T11:17:48.046Z,91379.09
2023-04-20T11:20:34.353Z,91380.41
2023-04-20T11:23:20.272Z,91382.84
2023-04-20T11:26:06.024Z,91390.16
2023-04-20T11:28:53.309Z,91388.97
2023-04-20T11:31:41.308Z,91399.94
2023-04-20T11:34:27.241Z,91397.63
2023-04-20T11:37:13.246Z,91391.22
2023-04-20T11:39:59.338Z,91386.25
2023-04-20T11:42:45.194Z,91374.53
2023-04-20T11:45:31.137Z,91381.22
2023-04-20T11:48:17.147Z,91384.16
2023-04-20T11:51:03.056Z,91377.53
2023-04-20T11:53:49.001Z,91374.00
2023-04-20T11:56:34.849Z,91378.75
2023-04-20T11:59:21.155Z,91378.41
2023-04-20T12:02:07.719Z,91370.56
2023-04-20T12:04:53.589Z,91369.94
2023-04-20T12:07:39.815Z,91371.56
2023-04-20T12:10:25.684Z,91370.88
2023-04-20T12:13:11.651Z,91376.19
2023-04-20T12:15:57.591Z,91380.81
2023-04-20T12:18:43.579Z,91395.69
2023-04-20T12:21:29.566Z,91393.13
2023-04-20T12:24:15.619Z,91393.06
2023-04-20T12:27:01.370Z,91389.34
2023-04-20T12:29:47.352Z,91392.03
2023-04-20T12:32:33.351Z,91390.59
2023-04-20T12:35:19.234Z,91386.53
2023-04-20T12:38:05.129Z,91386.09
2023-04-20T12:40:50.958Z,91385.59
2023-04-20T12:43:36.782Z,91393.16
2023-04-20T12:46:22.845Z,91406.09
2023-04-20T12:49:08.701Z,91404.66
2023-04-20T12:51:56.731Z,91402.91
2023-04-20T12:54:44.148Z,91401.22
2023-04-20T12:57:30.493Z,91404.69
2023-04-20T13:00:16.623Z,91409.47
2023-04-20T13:03:02.633Z,91407.50
2023-04-20T13:05:48.893Z,91414.09
2023-04-20T13:08:34.649Z,91420.88
2023-04-20T13:11:20.504Z,91422.25
2023-04-20T13:14:06.397Z,91420.06
2023-04-20T13:16:54.936Z,91420.78
2023-04-20T13:19:41.297Z,91432.88
2023-04-20T13:22:27.214Z,91430.59
2023-04-20T13:25:13.175Z,91426.28
2023-04-20T13:27:58.872Z,91419.66
2023-04-20T13:30:44.799Z,91428.78
2023-04-20T13:33:30.654Z,91421.63
2023-04-20T13:36:16.647Z,91427.78
2023-04-20T13:39:02.488Z,91428.28
2023-04-20T13:41:48.327Z,91434.53
2023-04-20T13:44:34.142Z,91440.47
2023-04-20T13:47:20.206Z,91440.63
2023-04-20T13:50:06.137Z,91427.84
2023-04-20T13:52:52.061Z,91432.19
2023-04-20T13:55:37.947Z,91441.78
2023-04-20T13:58:23.904Z,91434.28
2023-04-20T14:01:09.830Z,91446.47
2023-04-20T14:03:55.834Z,91442.13
2023-04-20T14:06:42.133Z,91437.75
2023-04-20T14:09:27.997Z,91438.75
2023-04-20T14:12:13.903Z,91443.16
2023-04-20T14:14:59.696Z,91440.13
2023-04-20T14:17:45.790Z,91427.66
2023-04-20T14:20:32.042Z,91427.66
2023-04-20T14:23:18.103Z,91430.38
2023-04-20T14:26:03.941Z,91431.72
2023-04-20T14:28:49.869Z,91428.81
2023-04-20T14:31:35.956Z,91429.03
2023-04-20T14:34:21.887Z,91436.00
2023-04-20T14:37:07.864Z,91427.09
2023-04-20T14:39:54.765Z,91423.38
2023-04-20T14:42:41.050Z,91423.00
2023-04-20T14:45:26.983Z,91429.34
2023-04-20T14:48:12.839Z,91431.59
2023-04-20T14:50:58.753Z,91423.31
2023-04-20T14:53:44.742Z,91421.00
2023-04-20T14:56:30.613Z,91427.75
2023-04-20T14:59:16.565Z,91417.22
2023-04-20T15:02:03.577Z,91420.59
2023-04-20T15:04:49.950Z,91413.75
2023-04-20T15:07:36.248Z,91416.00
2023-04-20T15:10:22.198Z,91423.00
2023-04-20T15:13:08.021Z,91417.72
2023-04-20T15:15:55.280Z,91412.84
2023-04-20T15:18:41.540Z,91425.34
2023-04-20T15:21:27.318Z,91416.91
2023-04-20T15:24:13.242Z,91418.69
2023-04-20T15:26:59.027Z,91422.78
2023-04-20T15:29:44.970Z,91427.13
2023-04-20T15:32:30.963Z,91426.31
2023-04-20T15:35:16.754Z,91433.25
2023-04-20T15:38:02.686Z,91430.44
2023-04-20T15:40:48.521Z,91437.06
2023-04-20T15:43:34.529Z,91456.38
2023-04-20T15:46:20.357Z,91454.72
2023-04-20T15:49:06.375Z,91450.59
2023-04-20T15:51:52.152Z,91457.06
2023-04-20T15:54:38.063Z,91448.41
2023-04-20T15:57:23.989Z,91451.69
2023-04-20T16:00:10.049Z,91448.31
2023-04-20T16:02:56.002Z,91447.78
2023-04-20T16:05:42.357Z,91445.47
2023-04-20T16:08:28.348Z,91443.97
2023-04-20T16:11:14.043Z,91441.00
2023-04-20T16:13:59.888Z,91437.66
2023-04-20T16:16:45.725Z,91433.25
2023-04-20T16:19:31.413Z,91438.78
2023-04-20T16:22:17.461Z,91443.47
2023-04-20T16:25:03.282Z,91440.50
2023-04-20T16:27:49.097Z,91447.69
2023-04-20T16:30:35.054Z,91445.47
2023-04-20T16:33:20.908Z,91439.47
2023-04-20T16:36:06.739Z,91439.53
2023-04-20T16:38:52.581Z,91433.13
2023-04-20T16:41:38.441Z,91428.25
2023-04-20T16:44:24.352Z,91439.84
2023-04-20T16:47:10.146Z,91442.38
2023-04-20T16:49:56.041Z,91447.91
2023-04-20T16:52:41.841Z,91443.78
2023-04-20T16:55:27.669Z,91441.22
2023-04-20T16:58:13.506Z,91432.91
2023-04-20T17:00:59.200Z,91440.56
2023-04-20T17:03:45.119Z,91438.84
2023-04-20T17:06:30.921Z,91440.16
2023-04-20T17:09:16.878Z,91438.53
2023-04-20T17:12:02.883Z,91429.56
2023-04-20T17:14:48.661Z,91437.75
2023-04-20T17:17:34.475Z,91438.22
2023-04-20T17:20:20.406Z,91436.59
2023-04-20T17:23:06.176Z,91434.63
2023-04-20T17:25:51.915Z,91443.56
2023-04-20T17:28:37.818Z,91434.38
2023-04-20T17:31:23.734Z,91439.91
2023-04-20T17:34:09.656Z,91446.19
2023-04-20T17:36:55.435Z,91451.25
2023-04-20T17:39:41.430Z,91453.00
2023-04-20T17:42:27.483Z,91457.34
2023-04-20T17:45:13.225Z,91458.63
2023-04-20T17:47:59.145Z,91460.94
2023-04-20T17:50:44.940Z,91455.69
2023-04-20T17:53:30.871Z,91459.00
2023-04-20T17:56:16.793Z,91473.09
2023-04-20T17:59:02.585Z,91463.56
2023-04-20T18:01:48.633Z,91462.47
2023-04-20T18:04:34.722Z,91458.72
2023-04-20T18:07:21.044Z,91456.19
2023-04-20T18:10:06.892Z,91458.41
2023-04-20T18:12:52.721Z,91466.38
2023-04-20T18:15:38.626Z,91453.63
2023-04-20T18:18:24.513Z,91459.75
2023-04-20T18:21:10.254Z,91452.72
2023-04-20T18:23:56.100Z,91455.56
2023-04-20T18:26:41.921Z,91460.00
2023-04-20T18:29:27.750Z,91458.91
2023-04-20T18:32:13.538Z,91462.22
2023-04-20T18:34:59.452Z,91454.66
2023-04-20T18:37:45.334Z,91460.31
2023-04-20T18:40:31.151Z,91453.13
2023-04-20T18:43:16.979Z,91459.69
2023-04-20T18:46:02.920Z,91458.44
2023-04-20T18:48:48.793Z,91463.31
2023-04-20T18:51:34.701Z,91461.06
2023-04-20T18:54:20.819Z,91458.69
2023-04-20T18:57:07.190Z,91458.25
2023-04-20T18:59:53.057Z,91455.91
2023-04-20T19:02:39.080Z,91455.06
2023-04-20T19:05:25.347Z,91461.84
2023-04-20T19:08:11.271Z,91463.81
2023-04-20T19:10:56.991Z,91468.69
2023-04-20T19:13:42.889Z,91470.72
2023-04-20T19:16:28.903Z,91469.88
2023-04-20T19:19:14.741Z,91471.56
2023-04-20T19:22:00.642Z,91470.88
2023-04-20T19:24:46.429Z,91467.53
2023-04-20T19:27:32.265Z,91470.66
2023-04-20T19:30:18.245Z,91470.13
2023-04-20T19:33:04.132Z,91474.59
2023-04-20T19:35:50.060Z,91473.84
2023-04-20T19:38:36.001Z,91478.69
2023-04-20T19:41:21.854Z,91481.63
2023-04-20T19:44:07.791Z,91489.53
2023-04-20T19:46:53.630Z,91482.25
2023-04-20T19:49:39.573Z,91478.19
2023-04-20T19:52:25.443Z,91494.34
2023-04-20T19:55:11.318Z,91483.59
2023-04-20T19:57:57.247Z,91492.91
2023-04-20T20:00:43.064Z,91481.25
2023-04-20T20:03:29.094Z,91487.88
2023-04-20T20:06:15.353Z,91485.19
2023-04-20T20:09:01.148Z,91483.06
2023-04-20T20:11:47.001Z,91480.31
2023-04-20T20:14:32.951Z,91483.16
2023-04-20T20:17:18.736Z,91473.91
2023-04-20T20:20:04.504Z,91472.31
2023-04-20T20:22:50.327Z,91479.09
2023-04-20T20:25:36.288Z,91478.78
2023-04-20T20:28:22.547Z,91476.59
2023-04-20T20:31:08.465Z,91481.50
2023-04-20T20:33:54.428Z,91473.50
2023-04-20T20:36:40.254Z,91474.03
2023-04-20T20:39:26.107Z,91467.72
2023-04-20T20:42:12.024Z,91471.16
2023-04-20T20:45:00.111Z,91465.19
2023-04-20T20:47:45.977Z,91469.03
2023-04-20T20:50:31.883Z,91472.16
2023-04-20T20:53:17.950Z,91474.44
2023-04-20T20:56:05.929Z,91477.78
2023-04-20T20:58:51.771Z,91474.34
2023-04-20T21:01:37.701Z,91483.50
2023-04-20T21:04:23.899Z,91482.06
2023-04-20T21:07:09.976Z,91493.00
2023-04-20T21:09:55.906Z,91490.72
2023-04-20T21:12:42.036Z,91493.41
2023-04-20T21:15:27.997Z,91500.13
2023-04-20T21:18:13.937Z,91489.31
2023-04-20T21:20:59.990Z,91500.44
2023-04-20T21:23:45.834Z,91485.31
2023-04-20T21:26:31.662Z,91496.09
2023-04-20T21:29:17.976Z,91501.22
2023-04-20T21:32:04.391Z,91501.50
2023-04-20T21:34:50.311Z,91500.53
2023-04-20T21:37:36.473Z,91494.94
2023-04-20T21:40:22.848Z,91496.78
2023-04-20T21:43:09.146Z,91494.41
2023-04-20T21:45:55.598Z,91493.78
2023-04-20T21:48:41.429Z,91491.50
2023-04-20T21:51:27.566Z,91489.91
2023-04-20T21:54:13.394Z,91491.44
2023-04-20T21:56:59.146Z,91486.50
2023-04-20T21:59:45.135Z,91487.84
2023-04-20T22:02:31.026Z,91485.03
2023-04-20T22:05:17.474Z,91488.41
2023-04-20T22:08:03.333Z,91497.25
2023-04-20T22:10:49.348Z,91494.34
2023-04-20T22:13:35.291Z,91494.41
2023-04-20T22:16:21.261Z,91500.69
2023-04-20T22:19:07.493Z,91496.34
2023-04-20T22:21:53.455Z,91496.69
2023-04-20T22:24:39.291Z,91499.94
2023-04-20T22:27:25.236Z,91503.09
2023-04-20T22:30:11.161Z,91502.97
2023-04-20T22:32:57.071Z,91509.72
2023-04-20T22:35:43.070Z,91510.41
2023-04-20T22:38:28.919Z,91497.66
2023-04-20T22:41:17.180Z,91503.75
2023-04-20T22:44:03.314Z,91509.31
2023-04-20T22:46:49.299Z,91509.31
2023-04-20T22:49:35.166Z,91501.47
2023-04-20T22:52:21.180Z,91505.72
2023-04-20T22:55:07.143Z,91496.44
2023-04-20T22:57:53.059Z,91499.66
2023-04-20T23:00:38.864Z,91504.09
2023-04-20T23:03:25.041Z,91494.78
2023-04-20T23:06:11.134Z,91496.63
2023-04-20T23:08:56.899Z,91482.31
2023-04-20T23:11:42.969Z,91489.38
2023-04-20T23:14:28.880Z,91481.47
2023-04-20T23:17:14.731Z,91479.72
2023-04-20T23:20:00.601Z,91477.31
2023-04-20T23:22:46.557Z,91475.88
2023-04-20T23:25:32.444Z,91478.25
2023-04-20T23:28:18.325Z,91479.13
2023-04-20T23:31:04.134Z,91477.00
2023-04-20T23:33:50.010Z,91478.72
2023-04-20T23:36:35.906Z,91472.34
2023-04-20T23:39:21.866Z,91483.25
2023-04-20T23:42:07.692Z,91470.75
2023-04-20T23:44:53.468Z,91472.59
2023-04-20T23:47:39.310Z,91465.38
2023-04-20T23:50:25.389Z,91466.91
2023-04-20T23:53:11.130Z,91472.56
2023-04-20T23:55:57.113Z,91470.47
2023-04-20T23:58:42.975Z,91477.94
